KHPT/HPT METAR and TAF weather

Enter ICAO airport designator
Station Type Date Time Source
KHPT METAR 2022/01/23 11:15 UTC NOAA

KHPT 231115Z AUTO 35012KT 10SM CLR M15/M17 A3006 RMK AO2


Station Type Date Time Source
KHPT Decoded METAR 2022/01/23 11:15 UTC NOAA

Station name not available
Jan 23, 2022 - 06:15 AM EST / 2022.01.23 1115 UTC
Wind: from the N (350 degrees) at 14 MPH (12 KT):0
Visibility: 10 mile(s):0
Sky conditions: clear
Temperature: 5 F (-15 C)
Windchill: -13 F (-25 C):2
Dew Point: 1 F (-17 C)
Relative Humidity: 84%
Pressure (altimeter): 30.06 in. Hg (1017 hPa)
ob: KHPT 231115Z AUTO 35012KT 10SM CLR M15/M17 A3006 RMK AO2
cycle: 11

Station Type Date Time Source
KHPT TAF UTC NOAA

Error!

Example: see airport list